Disclaimer

Please do not use the information listed here in-flight or in-navigation, as they are not provided to us by the airports but are provided by volunteers, so they might be outdated.

Search


Regions


Airport information page

No radio frequency information is available.

Airport informations:
Latitude: 16° 33' 42.56" N
Longitude: 093° 01' 33.89" W
Elevation: 1491 feet - 454 meters
Operating hours: Remarks
Operating agency: Military-civil joint use airport
Timezone: UTC-6(-5DT) - First Sunday in April to the last Saturday in October
Fuel: N/A

Runway information:
14/32 - 8202 x 148 feet< - >2500 x 45 meters

Recent METARs:
MMTG 162240Z 31018KT 8SM FEW025 SCT080 SCT300 22/16 A3001 RMK 8/152
MMTG 162240Z 31018KT 8SM FEW025 SCT080 SCT300 22/16 A3001 RMK 8/152
MMTG 162343Z 32014KT 8SM FEW030 SCT080 BKN300 21/16 A3003 RMK SLP149 52010 979 8/152

Airport on the map: